createdAt,value
2022-12-15T00:02:48.574Z,61.88
2022-12-15T00:08:10.608Z,61.95
2022-12-15T00:13:32.981Z,62.08
2022-12-15T00:18:55.329Z,62.19
2022-12-15T00:24:17.887Z,62.49
2022-12-15T00:29:39.624Z,62.19
2022-12-15T00:35:02.083Z,62.09
2022-12-15T00:40:05.702Z,62.00
2022-12-15T00:45:09.426Z,61.50
2022-12-15T00:50:31.470Z,61.53
2022-12-15T00:55:53.369Z,61.84
2022-12-15T01:01:15.263Z,61.63
2022-12-15T01:06:38.539Z,60.43
2022-12-15T01:12:00.896Z,59.86
2022-12-15T01:17:22.537Z,60.65
2022-12-15T01:22:26.051Z,60.64
2022-12-15T01:27:29.158Z,60.46
2022-12-15T01:32:32.365Z,60.10
2022-12-15T01:37:35.981Z,60.33
2022-12-15T01:42:39.186Z,60.00
2022-12-15T01:47:42.190Z,59.76
2022-12-15T01:52:45.712Z,60.75
2022-12-15T01:57:55.262Z,62.25
2022-12-15T02:02:59.443Z,61.83
2022-12-15T02:08:03.930Z,61.42
2022-12-15T02:13:19.938Z,61.97
2022-12-15T02:18:28.314Z,61.22
2022-12-15T02:23:31.703Z,60.51
2022-12-15T02:28:43.398Z,60.74
2022-12-15T02:33:51.611Z,61.65
2022-12-15T02:38:55.024Z,61.87
2022-12-15T02:43:58.028Z,61.50
2022-12-15T02:49:13.110Z,61.91
2022-12-15T02:54:34.869Z,62.05
2022-12-15T03:00:07.246Z,62.42
2022-12-15T03:05:12.909Z,62.65
2022-12-15T03:10:16.225Z,62.12
2022-12-15T03:15:19.430Z,62.35
2022-12-15T03:20:22.430Z,62.54
2022-12-15T03:25:25.536Z,62.34
2022-12-15T03:30:29.051Z,61.99
2022-12-15T03:35:33.589Z,61.79
2022-12-15T03:40:37.206Z,61.29
2022-12-15T03:45:40.334Z,59.03
2022-12-15T03:50:44.853Z,57.57
2022-12-15T03:55:47.958Z,58.62
2022-12-15T04:00:51.167Z,58.41
2022-12-15T04:05:54.270Z,58.30
2022-12-15T04:10:57.373Z,58.88
2022-12-15T04:21:22.834Z,59.36
2022-12-15T04:26:44.782Z,59.60
2022-12-15T04:32:06.319Z,59.92
2022-12-15T04:37:30.927Z,60.12
2022-12-15T04:42:54.925Z,60.62
2022-12-15T04:48:16.707Z,60.34
2022-12-15T04:53:39.432Z,60.08
2022-12-15T04:59:01.073Z,59.71
2022-12-15T05:04:23.315Z,59.13
2022-12-15T05:09:45.277Z,59.17
2022-12-15T05:15:07.321Z,59.83
2022-12-15T05:20:29.018Z,60.01
2022-12-15T05:25:51.111Z,59.97
2022-12-15T05:31:13.006Z,58.97
2022-12-15T05:36:16.271Z,58.80
2022-12-15T05:41:20.396Z,59.08
2022-12-15T05:46:23.935Z,58.88
2022-12-15T05:51:27.325Z,58.22
2022-12-15T05:56:30.529Z,58.98
2022-12-15T06:01:35.636Z,58.92
2022-12-15T06:06:39.406Z,59.36
2022-12-15T06:11:43.229Z,60.19
2022-12-15T06:16:50.241Z,60.00
2022-12-15T06:21:55.376Z,59.25
2022-12-15T06:26:58.323Z,58.81
2022-12-15T06:32:01.494Z,58.75
2022-12-15T06:37:04.894Z,58.42
2022-12-15T06:42:08.000Z,58.01
2022-12-15T06:47:11.259Z,57.86
2022-12-15T06:52:14.419Z,57.78
2022-12-15T06:57:17.417Z,57.70
2022-12-15T07:02:26.910Z,57.60
2022-12-15T07:07:32.849Z,56.92
2022-12-15T07:12:35.949Z,56.72
2022-12-15T07:17:39.157Z,56.46
2022-12-15T07:22:42.262Z,56.05
2022-12-15T07:27:46.599Z,55.98
2022-12-15T07:32:50.362Z,56.18
2022-12-15T07:37:54.036Z,56.13
2022-12-15T07:42:57.654Z,55.89
2022-12-15T07:48:00.758Z,56.13
2022-12-15T07:53:03.863Z,56.14
2022-12-15T07:58:06.765Z,56.20
2022-12-15T08:03:10.076Z,55.90
2022-12-15T08:08:15.460Z,55.81
2022-12-15T08:13:45.003Z,56.03
2022-12-15T08:18:44.170Z,55.72
2022-12-15T08:23:48.132Z,55.60
2022-12-15T08:28:51.100Z,55.45
2022-12-15T08:33:55.230Z,55.63
2022-12-15T08:38:58.948Z,55.64
2022-12-15T08:44:02.668Z,55.51
2022-12-15T08:49:06.079Z,54.95
2022-12-15T08:54:09.185Z,54.19
2022-12-15T08:59:12.346Z,53.54
2022-12-15T09:04:15.952Z,53.26
2022-12-15T09:09:19.524Z,54.09
2022-12-15T09:14:28.920Z,55.01
2022-12-15T09:19:32.495Z,56.99
2022-12-15T09:24:35.728Z,54.13
2022-12-15T09:29:39.009Z,53.41
2022-12-15T09:34:42.934Z,54.64
2022-12-15T09:39:45.838Z,53.82
2022-12-15T09:44:51.605Z,53.66
2022-12-15T09:49:56.359Z,53.98
2022-12-15T09:55:02.089Z,53.69
2022-12-15T10:00:22.011Z,52.83
2022-12-15T10:06:06.124Z,52.76
2022-12-15T10:11:00.284Z,51.87
2022-12-15T10:16:14.530Z,52.47
2022-12-15T10:21:17.654Z,52.70
2022-12-15T10:26:23.632Z,52.62
2022-12-15T10:31:36.974Z,52.31
2022-12-15T10:36:46.169Z,52.19
2022-12-15T10:42:11.548Z,52.76
2022-12-15T10:47:23.097Z,53.19
2022-12-15T10:52:32.811Z,52.48
2022-12-15T10:57:36.324Z,53.84
2022-12-15T11:02:39.897Z,53.83
2022-12-15T11:07:46.320Z,54.14
2022-12-15T11:12:59.391Z,54.35
2022-12-15T11:18:10.862Z,54.89
2022-12-15T11:23:21.855Z,56.23
2022-12-15T11:28:45.336Z,56.53
2022-12-15T11:33:52.371Z,57.30
2022-12-15T11:39:01.219Z,58.00
2022-12-15T11:44:16.058Z,58.15
2022-12-15T11:49:41.995Z,57.76
2022-12-15T11:54:51.963Z,57.03
2022-12-15T12:00:01.114Z,56.74
2022-12-15T12:05:18.347Z,56.05
2022-12-15T12:10:31.593Z,55.91
2022-12-15T12:15:53.231Z,55.41
2022-12-15T12:21:02.920Z,55.39
2022-12-15T12:26:32.718Z,55.59
2022-12-15T12:32:04.217Z,55.71
2022-12-15T12:37:16.923Z,55.64
2022-12-15T12:42:30.981Z,55.30
2022-12-15T12:47:37.875Z,55.95
2022-12-15T12:52:47.683Z,56.87
2022-12-15T12:57:52.483Z,57.14
2022-12-15T13:02:58.017Z,57.66
2022-12-15T13:08:05.306Z,57.95
2022-12-15T13:13:09.073Z,58.04
2022-12-15T13:18:12.181Z,58.23
2022-12-15T13:23:24.406Z,59.30
2022-12-15T13:28:28.026Z,59.30
2022-12-15T13:33:31.454Z,59.37
2022-12-15T13:38:56.552Z,60.18
2022-12-15T13:44:00.783Z,60.97
2022-12-15T13:49:27.236Z,61.04
2022-12-15T13:54:34.336Z,60.66
2022-12-15T13:59:40.514Z,60.61
2022-12-15T14:04:43.925Z,60.65
2022-12-15T14:09:50.512Z,60.10
2022-12-15T14:14:54.131Z,59.65
2022-12-15T14:19:57.236Z,59.73
2022-12-15T14:25:02.592Z,60.30
2022-12-15T14:30:11.028Z,61.12
2022-12-15T14:35:18.918Z,61.30
2022-12-15T14:40:28.410Z,61.09
2022-12-15T14:45:32.872Z,61.14
2022-12-15T14:50:36.866Z,61.37
2022-12-15T14:55:40.888Z,61.46
2022-12-15T15:00:51.575Z,61.39
2022-12-15T15:05:54.726Z,61.28
2022-12-15T15:11:02.801Z,61.77
2022-12-15T15:16:07.697Z,61.47
2022-12-15T15:21:15.871Z,61.16
2022-12-15T15:26:19.082Z,61.78
2022-12-15T15:31:22.418Z,61.54
2022-12-15T15:36:31.743Z,61.61
2022-12-15T15:41:34.746Z,61.50
2022-12-15T15:46:43.139Z,61.49
2022-12-15T15:51:47.208Z,61.52
2022-12-15T15:56:50.923Z,61.17
2022-12-15T16:01:56.127Z,61.43
2022-12-15T16:06:59.489Z,61.63
2022-12-15T16:12:02.798Z,61.34
2022-12-15T16:17:09.185Z,61.63
2022-12-15T16:22:21.912Z,61.70
2022-12-15T16:27:25.738Z,61.74
2022-12-15T16:32:28.841Z,61.70
2022-12-15T16:37:37.713Z,61.80
2022-12-15T16:42:43.141Z,62.12
2022-12-15T16:47:46.451Z,62.62
2022-12-15T16:52:51.239Z,62.78
2022-12-15T16:57:56.869Z,62.70
2022-12-15T17:03:00.933Z,63.01
2022-12-15T17:08:06.295Z,62.71
2022-12-15T17:13:22.867Z,62.78
2022-12-15T17:18:26.486Z,62.82
2022-12-15T17:23:30.932Z,62.97
2022-12-15T17:28:36.936Z,63.32
2022-12-15T17:33:40.309Z,63.46
2022-12-15T17:38:43.413Z,63.24
2022-12-15T17:43:51.462Z,63.12
2022-12-15T17:49:07.652Z,62.44
2022-12-15T17:54:15.893Z,62.62
2022-12-15T17:59:23.183Z,63.01
2022-12-15T18:04:26.216Z,62.92
2022-12-15T18:09:29.497Z,63.19
2022-12-15T18:14:32.695Z,62.93
2022-12-15T18:19:36.038Z,63.15
2022-12-15T18:24:40.035Z,63.30
2022-12-15T18:29:43.145Z,63.70
2022-12-15T18:34:46.976Z,63.31
2022-12-15T18:39:51.000Z,63.29
2022-12-15T18:44:54.206Z,63.14
2022-12-15T18:49:57.534Z,63.27
2022-12-15T18:55:01.437Z,63.37
2022-12-15T19:00:19.282Z,63.36
2022-12-15T19:05:30.945Z,62.91
2022-12-15T19:10:35.484Z,63.04
2022-12-15T19:15:38.531Z,62.76
2022-12-15T19:21:01.913Z,62.29
2022-12-15T19:26:05.399Z,62.48
2022-12-15T19:31:09.697Z,62.56
2022-12-15T19:36:17.275Z,62.58
2022-12-15T19:41:20.994Z,62.81
2022-12-15T19:46:24.188Z,62.75
2022-12-15T19:51:29.355Z,62.77
2022-12-15T19:56:33.247Z,62.77
2022-12-15T20:01:36.950Z,62.99
2022-12-15T20:06:40.820Z,62.93
2022-12-15T20:11:44.949Z,62.34
2022-12-15T20:16:50.753Z,63.33
2022-12-15T20:21:54.436Z,63.64
2022-12-15T20:26:58.059Z,63.47
2022-12-15T20:32:01.492Z,63.09
2022-12-15T20:37:05.597Z,62.67
2022-12-15T20:42:11.981Z,62.64
2022-12-15T20:47:25.223Z,62.54
2022-12-15T20:52:28.841Z,62.15
2022-12-15T20:57:32.460Z,62.54
2022-12-15T21:02:36.574Z,62.62
2022-12-15T21:07:40.219Z,61.89
2022-12-15T21:12:45.064Z,61.89
2022-12-15T21:18:19.669Z,61.39
2022-12-15T21:23:22.402Z,61.35
2022-12-15T21:28:25.702Z,60.83
2022-12-15T21:33:28.911Z,61.24
2022-12-15T21:38:34.329Z,61.21
2022-12-15T21:43:37.988Z,61.17
2022-12-15T21:48:59.942Z,61.40
2022-12-15T21:54:03.859Z,61.30
2022-12-15T21:59:12.196Z,61.61
2022-12-15T22:04:20.313Z,61.46
2022-12-15T22:09:23.417Z,61.16
2022-12-15T22:14:30.923Z,60.81
2022-12-15T22:19:34.033Z,61.30
2022-12-15T22:24:37.138Z,61.81
2022-12-15T22:29:40.344Z,61.46
2022-12-15T22:34:43.450Z,61.92
2022-12-15T22:39:46.556Z,61.81
2022-12-15T22:44:49.866Z,61.56
2022-12-15T22:49:54.595Z,61.76
2022-12-15T22:54:58.639Z,62.05
2022-12-15T23:00:10.245Z,62.18
2022-12-15T23:05:14.986Z,61.39
2022-12-15T23:10:38.059Z,61.34
2022-12-15T23:16:00.189Z,60.76
2022-12-15T23:21:03.726Z,60.57
2022-12-15T23:26:07.042Z,60.92
2022-12-15T23:31:10.556Z,60.98
2022-12-15T23:36:14.275Z,61.34
2022-12-15T23:41:18.195Z,61.39
2022-12-15T23:46:21.996Z,61.42
2022-12-15T23:51:25.128Z,61.34
2022-12-15T23:56:28.334Z,60.83
